createdAt,value
2019-05-22T00:02:25.578Z,11.71
2019-05-22T00:05:10.717Z,11.72
2019-05-22T00:07:37.925Z,11.75
2019-05-22T00:10:07.173Z,11.71
2019-05-22T00:12:46.300Z,11.68
2019-05-22T00:15:04.362Z,11.68
2019-05-22T00:17:31.657Z,11.64
2019-05-22T00:19:58.677Z,11.69
2019-05-22T00:22:26.680Z,11.68
2019-05-22T00:24:53.903Z,11.66
2019-05-22T00:27:21.628Z,11.71
2019-05-22T00:29:47.774Z,11.67
2019-05-22T00:32:15.489Z,11.67
2019-05-22T00:34:42.430Z,11.72
2019-05-22T00:37:08.618Z,11.68
2019-05-22T00:39:36.567Z,11.70
2019-05-22T00:42:02.785Z,11.74
2019-05-22T00:44:28.784Z,11.76
2019-05-22T00:46:55.005Z,11.80
2019-05-22T00:49:21.720Z,11.77
2019-05-22T00:51:56.250Z,11.72
2019-05-22T00:54:24.224Z,11.71
2019-05-22T00:56:53.011Z,11.76
2019-05-22T00:59:23.422Z,11.69
2019-05-22T01:01:54.926Z,11.72
2019-05-22T01:04:39.503Z,11.70
2019-05-22T01:07:11.407Z,11.71
2019-05-22T01:09:43.840Z,11.74
2019-05-22T03:07:10.024Z,11.57
2019-05-22T03:09:39.917Z,11.49
2019-05-22T03:12:07.728Z,11.48
2019-05-22T03:14:35.049Z,11.54
2019-05-22T03:17:03.835Z,11.57
2019-05-22T03:19:40.964Z,11.66
2019-05-22T03:22:18.207Z,11.64
2019-05-22T03:24:44.075Z,11.71
2019-05-22T03:27:11.220Z,11.75
2019-05-22T03:29:40.835Z,11.74
2019-05-22T03:32:07.242Z,11.67
2019-05-22T03:34:34.635Z,11.67
2019-05-22T03:37:01.311Z,11.65
2019-05-22T03:39:27.195Z,11.72
2019-05-22T03:41:53.034Z,11.71
2019-05-22T03:44:18.795Z,11.71
2019-05-22T03:46:45.603Z,11.76
2019-05-22T03:49:29.383Z,11.76
2019-05-22T03:51:45.364Z,11.69
2019-05-22T03:54:12.082Z,11.59
2019-05-22T03:56:39.402Z,11.73
2019-05-22T03:59:05.864Z,11.75
2019-05-22T04:01:32.781Z,11.77
2019-05-22T04:03:59.360Z,11.82
2019-05-22T04:06:25.525Z,11.86
2019-05-22T04:08:51.546Z,11.88
2019-05-22T04:11:18.224Z,11.88
2019-05-22T04:13:44.017Z,11.97
2019-05-22T04:16:12.111Z,11.94
2019-05-22T04:18:38.420Z,11.92
2019-05-22T04:21:04.451Z,11.96
2019-05-22T04:23:30.337Z,11.99
2019-05-22T04:25:56.123Z,12.04
2019-05-22T04:28:23.276Z,12.03
2019-05-22T04:30:49.926Z,11.98
2019-05-22T04:33:16.799Z,12.04
2019-05-22T04:35:42.587Z,11.97
2019-05-22T04:38:09.705Z,12.04
2019-05-22T04:40:42.779Z,12.17
2019-05-22T04:43:10.401Z,12.10
2019-05-22T04:45:36.212Z,12.00
2019-05-22T04:48:02.922Z,12.01
2019-05-22T04:50:29.865Z,12.02
2019-05-22T04:52:56.073Z,12.04
2019-05-22T04:55:23.473Z,12.07
2019-05-22T04:57:49.376Z,12.07
2019-05-22T05:00:16.001Z,12.04
2019-05-22T05:02:42.120Z,12.02
2019-05-22T05:05:10.235Z,11.97
2019-05-22T05:07:37.424Z,11.93
2019-05-22T05:10:04.730Z,12.03
2019-05-22T05:12:30.564Z,11.93
2019-05-22T05:14:56.988Z,11.88
2019-05-22T05:17:23.327Z,11.90
2019-05-22T05:19:49.357Z,11.88
2019-05-22T05:22:17.785Z,11.80
2019-05-22T05:24:43.591Z,11.85
2019-05-22T05:27:10.346Z,11.96
2019-05-22T05:29:36.123Z,11.99
2019-05-22T05:32:02.156Z,12.01
2019-05-22T05:34:35.355Z,12.13
2019-05-22T05:37:01.775Z,12.05
2019-05-22T05:39:39.659Z,11.96
2019-05-22T05:42:05.831Z,11.98
2019-05-22T05:44:33.037Z,12.05
2019-05-22T05:46:59.162Z,12.00
2019-05-22T05:49:26.117Z,11.94
2019-05-22T05:51:52.534Z,11.90
2019-05-22T05:54:18.350Z,11.89
2019-05-22T05:56:44.657Z,11.91
2019-05-22T05:59:11.855Z,11.86
2019-05-22T06:01:39.765Z,11.92
2019-05-22T06:04:05.686Z,11.97
2019-05-22T06:06:35.470Z,11.98
2019-05-22T06:09:03.182Z,11.98
2019-05-22T06:11:32.806Z,12.02
2019-05-22T06:14:00.220Z,12.01
2019-05-22T06:16:49.423Z,12.05
2019-05-22T06:19:15.788Z,12.05
2019-05-22T06:21:46.573Z,12.04
2019-05-22T06:24:19.299Z,12.08
2019-05-22T06:26:49.157Z,12.19
2019-05-22T06:29:15.328Z,12.46
2019-05-22T06:32:03.790Z,12.48
2019-05-22T06:34:29.876Z,12.55
2019-05-22T06:36:59.508Z,12.62
2019-05-22T06:39:25.349Z,12.66
2019-05-22T06:41:51.410Z,12.65
2019-05-22T06:44:26.648Z,12.63
2019-05-22T06:46:52.449Z,12.76
2019-05-22T06:49:34.348Z,12.78
2019-05-22T06:52:01.547Z,12.77
2019-05-22T06:54:27.743Z,12.88
2019-05-22T06:56:53.542Z,12.94
2019-05-22T06:59:19.411Z,13.03
2019-05-22T07:04:09.914Z,13.06
2019-05-22T07:06:36.046Z,13.00
2019-05-22T07:09:03.121Z,13.03
2019-05-22T07:11:29.324Z,12.87
2019-05-22T07:13:55.607Z,12.84
2019-05-22T07:16:21.420Z,12.86
2019-05-22T07:18:47.230Z,12.91
2019-05-22T07:21:13.264Z,12.88
2019-05-22T07:23:39.127Z,12.83
2019-05-22T07:26:05.233Z,12.85
2019-05-22T07:28:31.420Z,12.87
2019-05-22T07:30:57.850Z,12.82
2019-05-22T07:33:23.759Z,12.95
2019-05-22T07:36:08.625Z,12.96
2019-05-22T07:38:19.566Z,13.09
2019-05-22T07:40:49.883Z,13.19
2019-05-22T07:43:14.385Z,13.19
2019-05-22T07:45:40.637Z,13.09
2019-05-22T07:48:07.242Z,13.23
2019-05-22T07:50:35.292Z,13.14
2019-05-22T07:53:01.797Z,13.17
2019-05-22T07:55:30.217Z,13.07
2019-05-22T07:58:02.985Z,13.20
2019-05-22T08:00:29.319Z,13.47
2019-05-22T08:02:55.213Z,12.60
2019-05-22T08:05:26.996Z,13.76
2019-05-22T08:07:53.097Z,13.59
2019-05-22T08:10:20.384Z,13.44
2019-05-22T08:12:47.233Z,13.39
2019-05-22T08:15:13.499Z,13.44
2019-05-22T08:17:39.873Z,13.39
2019-05-22T08:20:05.902Z,13.31
2019-05-22T08:22:32.244Z,13.34
2019-05-22T08:24:58.198Z,13.38
2019-05-22T08:27:23.970Z,13.60
2019-05-22T08:29:50.058Z,13.60
2019-05-22T08:32:17.020Z,13.73
2019-05-22T08:34:43.361Z,13.70
2019-05-22T08:37:12.990Z,13.69
2019-05-22T08:39:39.388Z,13.69
2019-05-22T08:42:06.471Z,13.87
2019-05-22T08:44:33.107Z,14.18
2019-05-22T08:46:59.609Z,14.48
2019-05-22T08:49:25.536Z,14.51
2019-05-22T08:51:51.758Z,14.72
2019-05-22T08:54:18.148Z,14.86
2019-05-22T08:56:47.772Z,15.04
2019-05-22T08:59:19.627Z,15.07
2019-05-22T09:01:41.648Z,14.92
2019-05-22T09:04:08.131Z,14.83
2019-05-22T09:06:34.026Z,14.58
2019-05-22T09:08:59.838Z,14.94
2019-05-22T09:11:25.724Z,15.12
2019-05-22T09:13:51.788Z,15.11
2019-05-22T09:16:19.655Z,14.88
2019-05-22T09:18:45.650Z,14.81
2019-05-22T09:21:11.638Z,14.86
2019-05-22T09:23:38.136Z,15.09
2019-05-22T09:26:05.027Z,15.33
2019-05-22T09:28:30.929Z,15.22
2019-05-22T09:30:56.762Z,15.09
2019-05-22T09:33:23.422Z,15.46
2019-05-22T09:35:49.212Z,15.95
2019-05-22T09:38:15.124Z,16.17
2019-05-22T09:40:41.049Z,16.01
2019-05-22T09:43:07.073Z,15.74
2019-05-22T09:45:37.769Z,15.44
2019-05-22T09:48:04.270Z,15.40
2019-05-22T09:50:30.302Z,15.40
2019-05-22T09:52:58.297Z,15.33
2019-05-22T09:55:24.403Z,15.45
2019-05-22T09:57:50.417Z,15.69
2019-05-22T10:00:17.755Z,15.79
2019-05-22T10:02:43.963Z,16.00
2019-05-22T10:05:10.297Z,16.18
2019-05-22T10:07:57.108Z,16.06
2019-05-22T10:10:08.073Z,16.13
2019-05-22T10:12:34.222Z,16.05
2019-05-22T10:15:01.485Z,15.88
2019-05-22T10:17:28.422Z,16.08
2019-05-22T10:19:54.606Z,16.26
2019-05-22T10:22:27.523Z,16.71
2019-05-22T10:25:12.118Z,16.71
2019-05-22T10:27:21.376Z,16.90
2019-05-22T10:29:47.262Z,17.20
2019-05-22T10:32:13.264Z,17.34
2019-05-22T10:34:39.159Z,17.46
2019-05-22T10:37:06.423Z,17.78
2019-05-22T10:39:33.539Z,17.90
2019-05-22T10:41:59.673Z,18.40
2019-05-22T10:44:25.693Z,18.40
2019-05-22T10:46:51.475Z,17.79
2019-05-22T10:49:17.494Z,17.48
2019-05-22T10:51:43.361Z,17.46
2019-05-22T10:54:12.043Z,17.53
2019-05-22T10:56:37.962Z,15.32
2019-05-22T10:59:08.424Z,18.08
2019-05-22T11:01:37.562Z,17.87
2019-05-22T11:04:03.459Z,17.58
2019-05-22T11:06:29.731Z,17.49
2019-05-22T11:08:55.899Z,18.44
2019-05-22T11:11:22.369Z,18.44
2019-05-22T11:14:00.569Z,19.11
2019-05-22T11:16:16.679Z,19.29
2019-05-22T11:18:43.021Z,18.83
2019-05-22T11:21:10.566Z,18.65
2019-05-22T11:23:50.346Z,18.65
2019-05-22T11:26:04.281Z,18.59
2019-05-22T11:28:30.832Z,18.59
2019-05-22T11:31:00.009Z,19.03
2019-05-22T11:33:26.024Z,19.18
2019-05-22T11:35:52.220Z,19.09
2019-05-22T11:38:18.336Z,19.24
2019-05-22T11:40:44.136Z,19.68
2019-05-22T11:43:12.420Z,20.38
2019-05-22T11:45:38.254Z,20.84
2019-05-22T11:48:04.552Z,20.38
2019-05-22T11:50:32.515Z,19.93
2019-05-22T11:52:58.418Z,20.03
2019-05-22T11:55:42.168Z,20.18
2019-05-22T11:57:54.793Z,20.32
2019-05-22T12:00:22.089Z,20.24
2019-05-22T12:02:48.868Z,20.16
2019-05-22T12:05:15.401Z,20.21
2019-05-22T12:07:44.627Z,20.43
2019-05-22T12:10:12.658Z,20.23
2019-05-22T12:12:39.700Z,20.05
2019-05-22T12:15:07.742Z,19.89
2019-05-22T12:17:38.228Z,19.62
2019-05-22T12:20:04.953Z,19.79
2019-05-22T12:22:30.827Z,19.62
2019-05-22T12:24:56.636Z,19.93
2019-05-22T12:27:22.834Z,20.56
2019-05-22T12:29:49.245Z,20.42
2019-05-22T12:32:15.369Z,20.35
2019-05-22T12:34:41.486Z,20.48
2019-05-22T12:37:08.470Z,20.56
2019-05-22T12:39:36.954Z,21.22
2019-05-22T12:42:03.459Z,21.29
2019-05-22T12:44:29.486Z,21.10
2019-05-22T12:46:55.407Z,20.88
2019-05-22T12:49:25.694Z,20.38
2019-05-22T12:51:51.506Z,20.05
2019-05-22T12:54:17.394Z,19.97
2019-05-22T12:56:44.507Z,19.40
2019-05-22T12:59:11.941Z,20.33
2019-05-22T13:01:38.246Z,20.74
2019-05-22T13:04:05.232Z,20.79
2019-05-22T13:06:32.809Z,20.61
2019-05-22T13:08:58.710Z,20.69
2019-05-22T13:11:24.477Z,20.62
2019-05-22T13:13:50.379Z,20.79
2019-05-22T13:16:19.500Z,20.98
2019-05-22T13:18:46.012Z,21.65
2019-05-22T13:21:17.850Z,22.44
2019-05-22T13:23:43.960Z,20.31
2019-05-22T13:26:09.833Z,22.23
2019-05-22T13:28:37.857Z,21.78
2019-05-22T13:31:05.242Z,22.38
2019-05-22T13:33:34.774Z,22.29
2019-05-22T13:36:00.651Z,21.95
2019-05-22T13:38:26.756Z,21.21
2019-05-22T13:40:53.490Z,20.96
2019-05-22T13:43:19.292Z,20.71
2019-05-22T13:45:45.484Z,20.68
2019-05-22T13:48:11.576Z,20.39
2019-05-22T13:50:37.831Z,20.13
2019-05-22T13:53:08.157Z,20.07
2019-05-22T13:55:35.027Z,20.36
2019-05-22T13:58:02.136Z,20.52
2019-05-22T14:00:28.407Z,20.63
2019-05-22T14:02:54.361Z,20.83
2019-05-22T14:05:20.519Z,20.16
2019-05-22T14:07:46.389Z,19.94
2019-05-22T14:10:12.494Z,20.24
2019-05-22T14:12:38.704Z,20.54
2019-05-22T14:15:07.830Z,21.10
2019-05-22T14:17:34.057Z,21.81
2019-05-22T14:19:59.982Z,21.21
2019-05-22T14:22:26.135Z,20.69
2019-05-22T14:24:55.216Z,20.31
2019-05-22T14:27:21.036Z,20.29
2019-05-22T14:29:50.132Z,20.72
2019-05-22T14:32:16.334Z,21.14
2019-05-22T14:34:44.325Z,21.38
2019-05-22T14:37:11.482Z,21.42
2019-05-22T14:39:40.720Z,21.49
2019-05-22T14:42:07.741Z,21.87
2019-05-22T14:44:34.436Z,22.12
2019-05-22T14:47:13.304Z,22.40
2019-05-22T14:49:28.311Z,23.01
2019-05-22T14:51:54.289Z,22.73
2019-05-22T14:54:21.068Z,22.48
2019-05-22T14:56:47.670Z,22.43
2019-05-22T14:59:13.489Z,22.92
2019-05-22T15:01:42.530Z,23.04
2019-05-22T15:04:08.413Z,23.25
2019-05-22T15:06:37.548Z,22.86
2019-05-22T15:09:05.884Z,21.95
2019-05-22T15:11:31.894Z,21.81
2019-05-22T15:13:57.980Z,21.58
2019-05-22T15:16:24.103Z,21.45
2019-05-22T15:18:50.140Z,21.39
2019-05-22T15:21:16.583Z,21.68
2019-05-22T15:23:42.755Z,22.22
2019-05-22T15:26:08.858Z,22.79
2019-05-22T15:28:39.026Z,22.93
2019-05-22T15:31:04.816Z,22.27
2019-05-22T15:33:31.515Z,22.34
2019-05-22T15:35:57.961Z,22.31
2019-05-22T15:38:30.318Z,22.30
2019-05-22T15:40:56.099Z,22.35
2019-05-22T15:43:22.981Z,22.12
2019-05-22T15:45:49.468Z,22.11
2019-05-22T15:48:18.346Z,21.93
2019-05-22T15:50:46.305Z,21.90
2019-05-22T15:53:15.172Z,21.65
2019-05-22T15:55:42.268Z,21.46
2019-05-22T15:58:09.219Z,21.06
2019-05-22T16:00:36.931Z,21.04
2019-05-22T16:03:09.114Z,21.29
2019-05-22T16:05:36.407Z,21.14
2019-05-22T16:08:03.379Z,21.02
2019-05-22T16:10:29.387Z,21.01
2019-05-22T16:12:55.488Z,20.85
2019-05-22T16:15:22.167Z,20.76
2019-05-22T16:17:48.677Z,20.40
2019-05-22T16:20:17.941Z,20.44
2019-05-22T16:22:43.802Z,20.68
2019-05-22T16:25:10.407Z,20.80
2019-05-22T16:27:39.626Z,20.84
2019-05-22T16:30:06.085Z,20.97
2019-05-22T16:32:32.642Z,20.91
2019-05-22T16:34:58.528Z,20.85
2019-05-22T16:37:24.848Z,20.90
2019-05-22T16:39:50.970Z,20.58
2019-05-22T16:42:17.031Z,20.28
2019-05-22T16:44:42.834Z,19.83
2019-05-22T16:47:09.269Z,19.60
2019-05-22T16:49:35.397Z,19.67
2019-05-22T16:52:03.432Z,19.69
2019-05-22T16:54:30.129Z,19.91
2019-05-22T16:56:56.046Z,19.63
2019-05-22T16:59:22.349Z,19.79
2019-05-22T17:01:59.406Z,19.65
2019-05-22T17:04:16.676Z,19.58
2019-05-22T17:06:43.852Z,19.15
2019-05-22T17:09:12.440Z,19.40
2019-05-22T17:11:39.311Z,19.34
2019-05-22T17:14:06.120Z,19.33
2019-05-22T17:16:34.103Z,19.22
2019-05-22T17:19:00.824Z,19.15
2019-05-22T17:21:27.095Z,19.11
2019-05-22T17:23:53.414Z,18.95
2019-05-22T17:26:19.398Z,18.75
2019-05-22T17:28:46.811Z,18.62
2019-05-22T17:31:14.460Z,18.36
2019-05-22T17:33:40.505Z,18.45
2019-05-22T17:36:07.029Z,18.33
2019-05-22T17:38:33.127Z,18.26
2019-05-22T17:40:59.882Z,18.10
2019-05-22T17:43:28.097Z,18.10
2019-05-22T17:45:54.858Z,17.98
2019-05-22T17:48:21.176Z,17.98
2019-05-22T17:50:47.660Z,17.87
2019-05-22T17:53:14.357Z,17.78
2019-05-22T17:55:41.796Z,17.71
2019-05-22T17:58:09.100Z,17.58
2019-05-22T18:00:37.083Z,17.58
2019-05-22T18:03:03.819Z,17.44
2019-05-22T18:05:30.107Z,17.44
2019-05-22T18:07:56.231Z,17.37
2019-05-22T18:10:22.385Z,17.26
2019-05-22T18:12:48.459Z,17.14
2019-05-22T18:15:17.494Z,17.23
2019-05-22T18:17:43.600Z,17.17
2019-05-22T18:20:12.835Z,16.99
2019-05-22T18:22:39.970Z,16.99
2019-05-22T18:25:06.066Z,16.87
2019-05-22T18:27:32.093Z,16.79
2019-05-22T18:29:58.276Z,16.79
2019-05-22T18:32:24.225Z,16.78
2019-05-22T18:34:49.992Z,16.74
2019-05-22T18:37:18.729Z,16.69
2019-05-22T18:39:44.780Z,16.65
2019-05-22T18:42:13.937Z,16.56
2019-05-22T18:44:40.027Z,16.47
2019-05-22T18:47:09.636Z,16.24
2019-05-22T18:49:35.550Z,16.25
2019-05-22T18:52:01.724Z,16.11
2019-05-22T18:54:27.521Z,16.02
2019-05-22T18:56:56.491Z,15.92
2019-05-22T18:59:22.553Z,15.93
2019-05-22T19:01:48.554Z,15.85
2019-05-22T19:04:14.925Z,15.73
2019-05-22T19:06:41.249Z,15.61
2019-05-22T19:09:08.958Z,15.56
2019-05-22T19:11:34.827Z,15.53
2019-05-22T19:14:03.579Z,15.39
2019-05-22T19:16:29.715Z,15.26
2019-05-22T19:18:58.430Z,15.19
2019-05-22T19:21:24.239Z,15.04
2019-05-22T19:23:53.185Z,14.89
2019-05-22T19:26:19.099Z,14.91
2019-05-22T19:28:48.075Z,14.79
2019-05-22T19:31:14.136Z,14.80
2019-05-22T19:33:43.094Z,14.72
2019-05-22T19:36:09.098Z,14.67
2019-05-22T19:38:35.081Z,14.67
2019-05-22T19:41:01.181Z,14.58
2019-05-22T19:43:27.411Z,14.44
2019-05-22T19:45:53.338Z,14.31
2019-05-22T19:48:19.628Z,14.21
2019-05-22T19:50:48.991Z,14.09
2019-05-22T19:53:19.250Z,14.07
2019-05-22T19:55:44.798Z,13.94
2019-05-22T19:58:11.994Z,13.79
2019-05-22T20:00:37.818Z,13.76
2019-05-22T20:03:04.041Z,13.73
2019-05-22T20:05:34.759Z,13.73
2019-05-22T20:08:00.566Z,13.74
2019-05-22T20:10:26.610Z,12.94
2019-05-22T20:12:52.835Z,13.45
2019-05-22T20:15:19.049Z,13.38
2019-05-22T20:17:45.063Z,13.32
2019-05-22T20:20:12.043Z,13.36
2019-05-22T20:22:43.342Z,13.27
2019-05-22T20:25:09.333Z,13.35
2019-05-22T20:27:35.754Z,13.24
2019-05-22T20:30:05.153Z,13.18
2019-05-22T20:32:31.169Z,13.18
2019-05-22T20:34:57.035Z,10.58
2019-05-22T20:37:23.067Z,13.15
2019-05-22T20:39:49.082Z,13.05
2019-05-22T20:42:17.901Z,13.05
2019-05-22T20:44:44.567Z,12.95
2019-05-22T20:47:16.060Z,12.95
2019-05-22T20:49:43.434Z,12.92
2019-05-22T20:52:11.144Z,12.88
2019-05-22T20:54:37.673Z,12.86
2019-05-22T20:57:05.380Z,12.10
2019-05-22T20:59:31.286Z,12.74
2019-05-22T21:01:57.893Z,12.68
2019-05-22T21:04:24.607Z,12.60
2019-05-22T21:06:59.750Z,12.58
2019-05-22T21:09:26.142Z,12.54
2019-05-22T21:11:52.405Z,12.40
2019-05-22T21:14:18.763Z,12.40
2019-05-22T21:16:45.869Z,12.41
2019-05-22T21:19:13.791Z,12.39
2019-05-22T21:21:39.965Z,12.37
2019-05-22T21:24:11.548Z,12.33
2019-05-22T21:26:34.582Z,12.16
2019-05-22T21:29:00.779Z,12.13
2019-05-22T21:31:28.267Z,12.13
2019-05-22T21:33:54.664Z,12.15
2019-05-22T21:36:22.868Z,11.98
2019-05-22T21:38:49.061Z,11.89
2019-05-22T21:41:15.540Z,11.74
2019-05-22T21:43:41.356Z,11.62
2019-05-22T21:46:07.850Z,11.58
2019-05-22T21:48:33.682Z,11.66
2019-05-22T21:51:01.153Z,11.65
2019-05-22T21:53:27.767Z,11.58
2019-05-22T21:56:04.299Z,11.65
2019-05-22T21:58:22.112Z,11.60
2019-05-22T22:00:55.870Z,11.54
2019-05-22T22:03:28.073Z,11.46
2019-05-22T22:05:55.198Z,11.35
2019-05-22T22:08:21.114Z,11.20
2019-05-22T22:10:47.188Z,11.21
2019-05-22T22:13:14.013Z,11.16
2019-05-22T22:15:40.593Z,11.12
2019-05-22T22:18:06.879Z,11.13
2019-05-22T22:20:32.974Z,10.34
2019-05-22T22:22:59.102Z,11.00
2019-05-22T22:25:25.643Z,11.05
2019-05-22T22:27:51.651Z,10.97
2019-05-22T22:30:33.531Z,10.97
2019-05-22T22:33:04.005Z,10.93
2019-05-22T22:35:31.088Z,10.98
2019-05-22T22:37:57.199Z,10.97
2019-05-22T22:40:24.586Z,10.88
2019-05-22T22:42:52.311Z,10.81
2019-05-22T22:45:21.183Z,10.82
2019-05-22T22:47:47.426Z,10.86
2019-05-22T22:50:13.735Z,10.82
2019-05-22T22:52:41.389Z,10.73
2019-05-22T22:55:10.747Z,10.64
2019-05-22T22:57:37.669Z,10.67
2019-05-22T23:00:04.798Z,10.66
2019-05-22T23:02:32.103Z,10.61
2019-05-22T23:04:58.261Z,10.53
2019-05-22T23:07:24.689Z,10.48
2019-05-22T23:09:51.412Z,10.34
2019-05-22T23:12:19.524Z,10.19
2019-05-22T23:14:50.040Z,10.16
2019-05-22T23:17:15.927Z,10.10
2019-05-22T23:19:42.324Z,10.06
2019-05-22T23:22:09.496Z,10.16
2019-05-22T23:24:37.226Z,10.22
2019-05-22T23:27:05.203Z,10.08
2019-05-22T23:29:32.081Z,9.99
2019-05-22T23:31:58.294Z,9.99
2019-05-22T23:34:24.428Z,9.94
2019-05-22T23:36:50.654Z,9.91
2019-05-22T23:39:17.978Z,9.87
2019-05-22T23:41:45.807Z,9.92
2019-05-22T23:44:15.554Z,9.86
2019-05-22T23:46:42.211Z,9.92
2019-05-22T23:49:08.071Z,9.95
2019-05-22T23:51:34.077Z,9.85
2019-05-22T23:54:01.157Z,9.89
2019-05-22T23:56:27.072Z,9.98
2019-05-22T23:58:54.435Z,10.00
